Time;durP1;ratioP1;P1;durP2;ratioP2;P2;SDS_P1;SDS_P2;PMS_P1;PMS_P2;Temp;Humidity;BMP_temperature;BMP_pressure;BME280_temperature;BME280_humidity;BME280_pressure;Samples;Min_cycle;Max_cycle;Signal;HPM_P1;HPM_P2
2022/07/29 00:01:22;;;;;;;1.87;0.57;;;14.90;69.70;;;;;;5017595;28;20404;-67
2022/07/29 00:03:48;;;;;;;2.27;0.47;;;14.90;69.70;;;;;;5033074;28;20257;-66
2022/07/29 00:06:15;;;;;;;1.67;0.80;;;14.90;69.80;;;;;;5018411;28;20511;-67
2022/07/29 00:08:40;;;;;;;1.70;0.77;;;14.90;69.90;;;;;;5033090;28;20116;-66
2022/07/29 00:11:06;;;;;;;2.33;0.90;;;14.80;70.10;;;;;;5015967;28;20387;-67
2022/07/29 00:13:32;;;;;;;2.40;0.70;;;14.80;70.20;;;;;;5017119;28;20440;-66
2022/07/29 00:15:58;;;;;;;2.57;1.10;;;14.90;70.30;;;;;;5033192;28;20041;-67
2022/07/29 00:18:23;;;;;;;2.60;0.90;;;14.90;70.10;;;;;;5012702;28;20381;-66
2022/07/29 00:20:49;;;;;;;3.17;0.90;;;14.90;70.00;;;;;;5026097;28;20095;-66
2022/07/29 00:23:15;;;;;;;2.37;0.70;;;14.90;70.00;;;;;;5027172;28;20493;-66
2022/07/29 00:25:40;;;;;;;1.87;1.00;;;14.90;70.10;;;;;;5009801;28;20111;-66
2022/07/29 00:28:06;;;;;;;2.53;0.90;;;14.90;70.10;;;;;;5007316;28;20033;-66
2022/07/29 00:30:32;;;;;;;3.03;0.90;;;14.90;70.20;;;;;;5015506;28;20041;-66
2022/07/29 00:32:57;;;;;;;2.43;1.00;;;14.90;70.30;;;;;;5016190;28;20041;-66
2022/07/29 00:38:07;;;;;;;2.17;0.80;;;14.90;70.50;;;;;;5025480;28;20470;-66
2022/07/29 00:40:33;;;;;;;2.00;0.77;;;14.90;70.50;;;;;;5044832;28;20330;-66
2022/07/29 00:42:59;;;;;;;1.73;0.70;;;14.90;70.40;;;;;;5040677;28;20424;-66
2022/07/29 00:45:25;;;;;;;3.13;0.83;;;14.90;70.40;;;;;;5000601;28;20180;-66
2022/07/29 00:47:51;;;;;;;3.73;0.67;;;14.90;70.40;;;;;;5033246;28;20370;-67
2022/07/29 00:50:17;;;;;;;2.30;0.90;;;15.00;70.60;;;;;;5022542;28;20504;-66
2022/07/29 00:52:43;;;;;;;2.53;1.03;;;15.00;70.70;;;;;;5010350;28;20392;-67
2022/07/29 00:55:12;;;;;;;3.13;0.80;;;14.90;70.60;;;;;;5045241;28;20275;-66
2022/07/29 00:57:39;;;;;;;2.73;1.10;;;15.00;70.60;;;;;;5033352;28;20037;-67
2022/07/29 01:00:08;;;;;;;2.30;0.80;;;15.00;70.60;;;;;;5036694;28;20283;-66
2022/07/29 01:02:34;;;;;;;4.00;0.87;;;15.00;70.90;;;;;;5035529;28;20336;-66
2022/07/29 01:05:02;;;;;;;2.27;0.80;;;15.00;70.90;;;;;;5003546;28;20356;-66
2022/07/29 01:07:29;;;;;;;5.67;0.70;;;15.00;71.00;;;;;;5036593;28;20131;-66
2022/07/29 01:09:56;;;;;;;6.40;0.80;;;15.00;71.30;;;;;;5009531;28;20709;-66
2022/07/29 01:12:25;;;;;;;2.33;0.97;;;14.90;71.20;;;;;;5026609;28;20333;-66
2022/07/29 01:14:53;;;;;;;2.63;0.63;;;15.00;71.40;;;;;;5026888;28;20398;-66
2022/07/29 01:17:28;;;;;;;1.67;0.70;;;15.00;71.50;;;;;;5032737;28;20282;-66
2022/07/29 01:20:09;;;;;;;3.53;1.10;;;15.00;71.60;;;;;;5030402;28;20291;-66
2022/07/29 01:22:50;;;;;;;4.43;0.90;;;15.00;71.50;;;;;;5028133;28;20291;-66
2022/07/29 01:25:34;;;;;;;1.93;0.80;;;15.00;71.60;;;;;;5012132;28;20296;-66
2022/07/29 01:28:30;;;;;;;1.93;0.87;;;15.00;71.50;;;;;;5016658;28;20330;-66
2022/07/29 01:30:56;;;;;;;1.93;0.70;;;15.00;71.90;;;;;;5014905;28;20307;-66
2022/07/29 01:36:18;;;;;;;2.70;0.73;;;15.10;71.80;;;;;;5031586;28;20787;-66
2022/07/29 01:38:49;;;;;;;3.00;0.65;;;15.10;71.80;;;;;;5031543;28;20649;-66
2022/07/29 01:41:20;;;;;;;1.10;0.60;;;15.00;71.90;;;;;;5031947;28;20527;-66
2022/07/29 01:44:00;;;;;;;1.60;0.87;;;15.00;72.10;;;;;;5032094;28;20283;-66
2022/07/29 01:46:34;;;;;;;3.83;0.70;;;15.00;72.30;;;;;;5031573;28;20322;-66
2022/07/29 01:49:11;;;;;;;3.63;1.10;;;15.00;72.30;;;;;;5031920;28;20352;-66
2022/07/29 01:51:46;;;;;;;3.83;0.70;;;15.00;72.50;;;;;;5012605;28;20049;-66
2022/07/29 01:54:26;;;;;;;1.55;0.90;;;15.00;72.30;;;;;;5033190;28;20337;-66
2022/07/29 01:56:55;;;;;;;5.27;0.90;;;15.00;72.30;;;;;;5030200;28;20053;-66
2022/07/29 01:59:23;;;;;;;2.93;0.70;;;15.10;72.40;;;;;;5032581;28;20281;-66
2022/07/29 02:01:52;;;;;;;1.67;0.90;;;15.10;72.40;;;;;;5031498;28;20342;-66
2022/07/29 02:04:19;;;;;;;2.83;1.10;;;15.10;72.50;;;;;;5027705;28;20307;-66
2022/07/29 02:06:45;;;;;;;2.43;0.80;;;15.10;72.60;;;;;;5011702;28;20272;-66
2022/07/29 02:09:14;;;;;;;3.00;1.00;;;15.10;72.20;;;;;;5055161;28;20276;-66
2022/07/29 02:11:42;;;;;;;4.83;0.87;;;15.10;72.50;;;;;;5012571;28;20790;-66
2022/07/29 02:14:09;;;;;;;3.07;0.90;;;15.10;72.60;;;;;;5028966;28;20300;-66
2022/07/29 02:16:39;;;;;;;2.40;0.73;;;15.10;72.40;;;;;;5023659;28;20374;-66
2022/07/29 02:19:06;;;;;;;3.93;0.97;;;15.10;72.40;;;;;;5035527;28;20355;-66
2022/07/29 02:21:35;;;;;;;3.73;0.93;;;15.00;72.40;;;;;;5011525;28;20283;-66
2022/07/29 02:24:02;;;;;;;1.97;0.87;;;15.00;72.40;;;;;;5022234;28;20330;-66
2022/07/29 02:26:30;;;;;;;2.50;0.80;;;15.00;72.40;;;;;;5036105;28;20702;-66
2022/07/29 02:28:58;;;;;;;3.07;1.17;;;15.10;72.20;;;;;;5034532;28;20417;-67
2022/07/29 02:31:28;;;;;;;2.23;0.80;;;15.10;72.20;;;;;;5030204;28;20668;-66
2022/07/29 02:33:55;;;;;;;3.27;1.00;;;15.00;72.40;;;;;;5027137;28;20643;-66
2022/07/29 02:36:23;;;;;;;2.00;0.80;;;15.00;72.40;;;;;;5013781;28;20333;-67
2022/07/29 02:38:53;;;;;;;2.50;0.97;;;15.10;72.40;;;;;;5031153;28;20370;-66
2022/07/29 02:41:33;;;;;;;4.93;0.83;;;15.00;72.50;;;;;;5014945;28;20765;-66
2022/07/29 02:44:04;;;;;;;2.83;1.00;;;15.00;72.60;;;;;;5023614;28;20291;-66
2022/07/29 02:46:36;;;;;;;3.63;1.10;;;14.90;72.50;;;;;;5027046;28;20294;-66
2022/07/29 02:49:11;;;;;;;4.03;0.87;;;14.90;72.80;;;;;;5009460;28;20628;-66
2022/07/29 02:51:41;;;;;;;;;;;15.00;72.60;;;;;;5030035;28;20284;-66
2022/07/29 02:54:08;;;;;;;3.73;0.93;;;14.90;72.50;;;;;;5031704;28;19921;-67
2022/07/29 02:56:37;;;;;;;3.00;1.00;;;14.90;72.30;;;;;;5026904;28;20289;-67
2022/07/29 02:59:06;;;;;;;4.93;0.93;;;14.90;72.20;;;;;;5034658;28;20631;-67
2022/07/29 03:01:34;;;;;;;1.87;0.70;;;14.90;72.30;;;;;;5031553;28;20686;-66
2022/07/29 03:04:04;;;;;;;2.57;0.50;;;14.90;72.30;;;;;;5032609;28;20364;-67
2022/07/29 03:06:32;;;;;;;3.37;0.80;;;14.90;72.30;;;;;;5028312;28;20287;-66
2022/07/29 03:08:59;;;;;;;3.27;1.20;;;14.90;72.40;;;;;;5036619;28;20313;-66
2022/07/29 03:11:26;;;;;;;4.00;1.00;;;14.90;72.30;;;;;;5036690;28;20291;-67
2022/07/29 03:13:52;;;;;;;3.50;1.00;;;14.80;72.30;;;;;;5003047;28;20635;-67
2022/07/29 03:16:19;;;;;;;3.40;1.00;;;14.80;72.30;;;;;;5024606;28;20276;-67
2022/07/29 03:18:46;;;;;;;5.43;0.97;;;14.80;72.30;;;;;;5021003;28;20759;-67
2022/07/29 03:21:12;;;;;;;5.53;1.07;;;14.90;72.20;;;;;;5035115;28;20856;-66
2022/07/29 03:23:44;;;;;;;2.37;0.87;;;14.90;72.10;;;;;;5034669;28;20365;-67
2022/07/29 03:26:09;;;;;;;3.80;0.60;;;14.90;72.10;;;;;;5034954;28;20549;-67
2022/07/29 03:28:35;;;;;;;2.00;1.13;;;14.90;72.00;;;;;;5040635;28;20449;-67
2022/07/29 03:31:01;;;;;;;1.63;0.70;;;14.90;72.00;;;;;;5037394;28;20041;-67
2022/07/29 03:33:28;;;;;;;2.50;0.90;;;14.90;72.10;;;;;;5032203;28;20082;-67
2022/07/29 03:35:54;;;;;;;3.77;1.00;;;14.90;72.00;;;;;;5034405;28;20045;-67
2022/07/29 03:38:25;;;;;;;2.87;0.90;;;14.90;72.00;;;;;;5036887;28;20779;-66
2022/07/29 03:41:01;;;;;;;5.27;1.53;;;14.90;72.00;;;;;;5020345;28;20460;-67
2022/07/29 03:43:30;;;;;;;5.17;1.33;;;14.90;72.00;;;;;;5017915;28;20371;-67
2022/07/29 03:46:00;;;;;;;3.33;0.77;;;14.90;71.80;;;;;;5019685;28;20767;-66
2022/07/29 03:48:29;;;;;;;5.00;1.17;;;14.90;72.10;;;;;;5037113;28;20287;-67
2022/07/29 03:50:55;;;;;;;2.90;1.20;;;14.90;71.90;;;;;;5018559;28;20763;-66
2022/07/29 03:53:21;;;;;;;2.07;0.80;;;14.90;71.90;;;;;;5032649;28;20394;-67
2022/07/29 03:55:53;;;;;;;2.70;0.70;;;14.90;71.70;;;;;;5027327;28;20815;-67
2022/07/29 03:58:19;;;;;;;3.17;0.90;;;14.90;71.80;;;;;;5030123;28;20306;-67
2022/07/29 04:00:46;;;;;;;4.47;1.00;;;14.90;71.80;;;;;;5033959;28;20279;-67
2022/07/29 04:03:13;;;;;;;4.43;1.03;;;14.90;72.10;;;;;;5021980;28;20291;-67
2022/07/29 04:05:39;;;;;;;2.20;1.17;;;14.90;71.90;;;;;;5021879;28;20775;-66
2022/07/29 04:08:05;;;;;;;2.63;0.87;;;14.90;72.10;;;;;;5039722;28;20388;-66
2022/07/29 04:10:31;;;;;;;3.97;1.30;;;14.90;72.10;;;;;;5022448;28;20371;-66
2022/07/29 04:12:57;;;;;;;1.07;0.67;;;14.90;72.00;;;;;;5009055;28;20772;-66
2022/07/29 04:15:23;;;;;;;5.93;1.00;;;14.80;72.10;;;;;;5021220;28;20394;-66
2022/07/29 04:17:49;;;;;;;2.97;0.87;;;14.90;72.00;;;;;;5039219;28;20370;-67
2022/07/29 04:20:14;;;;;;;2.47;0.63;;;14.90;72.00;;;;;;5048498;28;20052;-67
2022/07/29 04:22:41;;;;;;;4.73;0.80;;;14.80;71.90;;;;;;5026739;28;20049;-67
2022/07/29 04:25:07;;;;;;;5.17;0.80;;;14.80;72.00;;;;;;5037683;28;20044;-66
2022/07/29 04:27:32;;;;;;;6.47;0.90;;;14.90;72.10;;;;;;5003617;28;20288;-67
2022/07/29 04:29:58;;;;;;;6.17;1.13;;;14.90;72.10;;;;;;5019614;28;20323;-67
2022/07/29 04:32:25;;;;;;;4.33;0.60;;;14.90;72.00;;;;;;5016461;28;20044;-67
2022/07/29 04:34:50;;;;;;;4.70;0.80;;;14.90;72.10;;;;;;5037297;28;20036;-68
2022/07/29 04:37:16;;;;;;;4.23;0.70;;;14.90;71.90;;;;;;5039367;28;20272;-67
2022/07/29 04:39:42;;;;;;;2.20;0.50;;;14.90;72.00;;;;;;5027681;28;20040;-67
2022/07/29 04:42:07;;;;;;;3.00;1.03;;;14.90;71.80;;;;;;5023814;28;20045;-67
2022/07/29 04:44:33;;;;;;;4.10;1.17;;;14.90;71.90;;;;;;5044308;28;20174;-66
2022/07/29 04:46:59;;;;;;;3.83;0.90;;;14.90;72.00;;;;;;5041410;28;20127;-66
2022/07/29 04:49:24;;;;;;;2.53;0.83;;;15.00;71.50;;;;;;5039083;28;20063;-66
2022/07/29 04:51:50;;;;;;;1.30;0.70;;;15.00;71.50;;;;;;5027309;28;20036;-66
2022/07/29 04:54:16;;;;;;;2.17;0.90;;;15.00;71.30;;;;;;5030735;28;20052;-66
2022/07/29 04:56:41;;;;;;;6.27;1.63;;;15.00;71.30;;;;;;5040911;28;20049;-66
2022/07/29 04:59:07;;;;;;;5.10;0.70;;;15.10;71.20;;;;;;5033032;28;20124;-66
2022/07/29 05:01:33;;;;;;;4.03;0.70;;;15.10;71.00;;;;;;5033006;28;20094;-66
2022/07/29 05:03:58;;;;;;;2.93;0.93;;;15.10;71.00;;;;;;5032579;28;20116;-66
2022/07/29 05:06:24;;;;;;;3.43;0.93;;;15.20;70.90;;;;;;5017318;28;20036;-67
2022/07/29 05:08:50;;;;;;;3.23;1.23;;;15.20;70.90;;;;;;5032704;28;20132;-66
2022/07/29 05:11:15;;;;;;;3.83;0.60;;;15.20;70.80;;;;;;4998828;28;20045;-66
2022/07/29 05:13:41;;;;;;;2.93;0.77;;;15.20;70.80;;;;;;5015866;28;20045;-67
2022/07/29 05:16:08;;;;;;;4.60;1.00;;;15.30;70.90;;;;;;5034374;28;20028;-66
2022/07/29 05:18:34;;;;;;;3.73;0.80;;;15.30;70.60;;;;;;5032999;28;20452;-67
2022/07/29 05:21:00;;;;;;;2.80;0.80;;;15.40;70.40;;;;;;5017853;28;20287;-66
2022/07/29 05:23:25;;;;;;;4.10;0.97;;;15.40;70.30;;;;;;5025873;28;20072;-67
2022/07/29 05:25:51;;;;;;;4.40;0.73;;;15.40;70.20;;;;;;5032177;28;20049;-67
2022/07/29 05:28:17;;;;;;;2.47;0.60;;;15.50;70.10;;;;;;5032269;28;20072;-67
2022/07/29 05:30:44;;;;;;;2.57;0.70;;;15.60;70.00;;;;;;5011083;28;20095;-66
2022/07/29 05:33:10;;;;;;;4.07;0.87;;;15.70;69.60;;;;;;5027735;28;20456;-67
2022/07/29 05:35:36;;;;;;;3.70;1.03;;;15.70;69.50;;;;;;4988128;28;20676;-67
2022/07/29 05:38:03;;;;;;;2.20;0.70;;;15.80;69.20;;;;;;5026401;28;20559;-67
2022/07/29 05:40:29;;;;;;;3.53;0.80;;;15.90;69.30;;;;;;5029387;28;20312;-66
2022/07/29 05:42:55;;;;;;;3.33;0.90;;;16.20;68.80;;;;;;5029538;28;20341;-67
2022/07/29 05:45:21;;;;;;;2.80;0.90;;;16.60;68.10;;;;;;5031250;28;20092;-67
2022/07/29 05:47:46;;;;;;;3.27;0.90;;;17.20;67.20;;;;;;5017694;28;20803;-67
2022/07/29 05:50:12;;;;;;;1.60;0.77;;;17.60;65.20;;;;;;5001304;28;20037;-67
2022/07/29 05:52:39;;;;;;;1.60;0.50;;;17.70;65.00;;;;;;5027535;28;20366;-67
2022/07/29 05:55:05;;;;;;;2.87;0.73;;;18.00;64.30;;;;;;5033134;28;20271;-67
2022/07/29 05:57:31;;;;;;;3.50;0.73;;;18.40;63.10;;;;;;5016114;28;20686;-67
2022/07/29 05:59:57;;;;;;;3.53;0.90;;;18.70;62.50;;;;;;5031020;28;20601;-66
2022/07/29 06:02:23;;;;;;;2.73;0.90;;;18.80;62.10;;;;;;5057263;28;20309;-67
2022/07/29 06:04:49;;;;;;;2.57;0.70;;;18.80;62.00;;;;;;5030881;28;20041;-67
2022/07/29 06:07:15;;;;;;;3.33;1.00;;;18.70;61.40;;;;;;5015245;28;20071;-67
2022/07/29 06:09:41;;;;;;;3.90;0.97;;;18.70;61.00;;;;;;5014786;28;20049;-67
2022/07/29 06:12:07;;;;;;;3.57;1.00;;;18.60;61.90;;;;;;5033682;28;20853;-67
2022/07/29 06:14:33;;;;;;;5.07;0.90;;;18.70;62.10;;;;;;5025865;28;20132;-67
2022/07/29 06:16:59;;;;;;;3.27;0.80;;;18.90;61.50;;;;;;5010041;28;20719;-67
2022/07/29 06:19:25;;;;;;;2.83;0.70;;;19.10;61.50;;;;;;5032764;28;20041;-67
2022/07/29 06:21:51;;;;;;;1.73;0.70;;;19.50;60.60;;;;;;5027105;28;20080;-67
2022/07/29 06:24:17;;;;;;;4.30;1.00;;;20.00;59.10;;;;;;5024098;28;20310;-67
2022/07/29 06:26:43;;;;;;;4.03;0.73;;;20.10;57.80;;;;;;5013706;28;20072;-67
2022/07/29 06:29:12;;;;;;;5.90;0.90;;;20.00;58.50;;;;;;5013929;28;20029;-67
2022/07/29 06:31:38;;;;;;;2.57;0.70;;;20.00;58.50;;;;;;5012389;28;20280;-67
2022/07/29 06:34:04;;;;;;;5.37;0.93;;;20.10;58.60;;;;;;5012792;28;20786;-67
2022/07/29 06:36:30;;;;;;;3.37;0.90;;;20.50;58.10;;;;;;5028557;28;20287;-67
2022/07/29 06:38:56;;;;;;;3.60;0.60;;;20.90;56.90;;;;;;5012411;28;20459;-67
2022/07/29 06:41:22;;;;;;;1.93;0.80;;;21.20;56.00;;;;;;5029199;28;20071;-67
2022/07/29 06:43:51;;;;;;;3.43;0.87;;;21.30;55.70;;;;;;5012968;28;20170;-67
2022/07/29 06:46:17;;;;;;;3.03;0.80;;;21.40;55.70;;;;;;5011369;28;20372;-67
2022/07/29 06:48:44;;;;;;;2.90;0.83;;;21.30;54.60;;;;;;5027017;28;20341;-67
2022/07/29 06:51:11;;;;;;;3.67;0.80;;;20.90;55.10;;;;;;5028459;28;20555;-67
2022/07/29 06:53:37;;;;;;;2.73;0.70;;;20.50;56.60;;;;;;5028262;28;20635;-67
2022/07/29 06:56:04;;;;;;;3.33;0.87;;;20.20;56.90;;;;;;5012488;28;20283;-67
2022/07/29 06:58:30;;;;;;;3.63;0.70;;;20.00;57.10;;;;;;5028092;28;20358;-67
2022/07/29 07:00:57;;;;;;;4.73;0.90;;;19.70;57.80;;;;;;5031705;28;20449;-67
2022/07/29 07:03:24;;;;;;;3.57;1.00;;;19.50;57.60;;;;;;5032684;28;20056;-67
2022/07/29 07:05:50;;;;;;;3.03;0.80;;;19.40;58.40;;;;;;5034496;28;20287;-67
2022/07/29 07:08:16;;;;;;;3.13;0.97;;;19.30;58.80;;;;;;5014795;28;20284;-67
2022/07/29 07:10:42;;;;;;;3.10;0.93;;;19.30;58.90;;;;;;5010128;28;20033;-67
2022/07/29 07:13:08;;;;;;;4.07;0.90;;;19.30;59.10;;;;;;5029432;28;20393;-67
2022/07/29 07:15:36;;;;;;;4.03;1.00;;;19.20;59.00;;;;;;5030346;28;20283;-67
2022/07/29 07:18:02;;;;;;;3.37;0.93;;;19.20;58.90;;;;;;5025345;28;20498;-67
2022/07/29 07:20:28;;;;;;;4.47;1.00;;;19.10;59.50;;;;;;5006381;28;20315;-67
2022/07/29 07:22:55;;;;;;;5.07;1.03;;;19.10;59.00;;;;;;5013850;28;20303;-67
2022/07/29 07:25:21;;;;;;;3.80;1.00;;;19.10;58.90;;;;;;5026280;28;20855;-67
2022/07/29 07:27:47;;;;;;;5.03;1.10;;;19.00;59.00;;;;;;5008547;28;20091;-67
2022/07/29 07:30:13;;;;;;;4.30;1.20;;;19.00;59.50;;;;;;5004079;28;20033;-67
2022/07/29 07:32:39;;;;;;;3.70;0.70;;;19.00;59.50;;;;;;5026343;28;20056;-67
2022/07/29 07:35:07;;;;;;;4.03;0.90;;;18.90;59.50;;;;;;5026837;28;20322;-67
2022/07/29 07:37:33;;;;;;;5.77;1.27;;;18.90;59.90;;;;;;5001082;28;20283;-67
2022/07/29 07:39:59;;;;;;;3.37;1.20;;;19.00;60.20;;;;;;4995511;28;20283;-67
2022/07/29 07:42:25;;;;;;;5.20;1.17;;;19.20;59.80;;;;;;5011893;28;21025;-67
2022/07/29 07:44:51;;;;;;;5.13;1.10;;;19.20;59.80;;;;;;5016658;28;20052;-67
2022/07/29 07:47:20;;;;;;;4.00;1.00;;;19.30;59.30;;;;;;4982201;28;20127;-67
2022/07/29 07:49:47;;;;;;;4.90;1.43;;;19.30;59.10;;;;;;5018250;28;20044;-67
2022/07/29 07:52:14;;;;;;;2.40;0.90;;;19.40;58.90;;;;;;5056607;28;20319;-67
2022/07/29 07:54:39;;;;;;;2.60;0.80;;;19.60;58.60;;;;;;5028651;28;20039;-67
2022/07/29 07:57:05;;;;;;;5.40;1.00;;;19.70;58.50;;;;;;5032655;28;20510;-67
2022/07/29 07:59:31;;;;;;;1.60;1.00;;;19.80;58.10;;;;;;5010679;28;20124;-67
2022/07/29 08:01:56;;;;;;;4.77;1.07;;;19.90;57.70;;;;;;5010741;28;20080;-67
2022/07/29 08:04:23;;;;;;;6.80;1.50;;;20.00;58.20;;;;;;5032786;28;20041;-67
2022/07/29 08:06:50;;;;;;;2.73;1.10;;;20.10;58.70;;;;;;5029677;28;20049;-67
2022/07/29 08:09:16;;;;;;;3.90;1.13;;;20.30;58.30;;;;;;5006894;28;20037;-67
2022/07/29 08:11:42;;;;;;;4.37;1.17;;;20.50;57.70;;;;;;5006127;28;20114;-67
2022/07/29 08:14:07;;;;;;;3.30;0.97;;;20.50;57.00;;;;;;5015092;28;20489;-67
2022/07/29 08:16:33;;;;;;;2.90;1.00;;;20.50;56.70;;;;;;5009048;28;20390;-67
2022/07/29 08:18:59;;;;;;;2.87;1.40;;;20.50;56.80;;;;;;5025431;28;20041;-67
2022/07/29 08:21:24;;;;;;;3.27;0.90;;;20.40;56.90;;;;;;5011196;28;20378;-67
2022/07/29 08:24:42;;;;;;;3.43;1.00;;;20.40;57.10;;;;;;5031193;28;20044;-67
2022/07/29 08:26:43;;;;;;;4.57;1.20;;;20.50;56.60;;;;;;5028272;28;20095;-67
2022/07/29 08:29:09;;;;;;;3.23;1.20;;;20.40;56.80;;;;;;5023771;28;20037;-67
2022/07/29 08:31:35;;;;;;;3.20;1.00;;;20.30;57.20;;;;;;5031889;28;20513;-67
2022/07/29 08:34:02;;;;;;;3.80;1.10;;;20.30;57.40;;;;;;5027374;28;20735;-67
2022/07/29 08:36:28;;;;;;;1.30;0.80;;;20.30;57.80;;;;;;5013916;28;20404;-67
2022/07/29 08:38:54;;;;;;;4.87;1.67;;;20.40;57.60;;;;;;5012478;28;20029;-67
2022/07/29 08:41:20;;;;;;;3.23;1.20;;;20.30;57.70;;;;;;5018127;28;20048;-67
2022/07/29 08:43:46;;;;;;;3.10;1.20;;;20.30;57.30;;;;;;5026770;28;20118;-67
2022/07/29 08:46:12;;;;;;;3.93;1.17;;;20.20;57.80;;;;;;5037093;28;20195;-67
2022/07/29 08:48:40;;;;;;;4.50;1.10;;;20.20;57.90;;;;;;5028462;28;20128;-67
2022/07/29 08:51:07;;;;;;;3.90;1.10;;;20.00;58.10;;;;;;5003939;28;20080;-67
2022/07/29 08:53:33;;;;;;;5.10;1.20;;;19.90;58.20;;;;;;5028891;28;20174;-67
2022/07/29 08:56:00;;;;;;;5.63;1.30;;;19.90;58.50;;;;;;5021110;28;20649;-67
2022/07/29 08:58:31;;;;;;;4.70;1.10;;;19.90;58.60;;;;;;5030621;28;20628;-67
2022/07/29 09:00:57;;;;;;;2.70;0.97;;;19.90;58.80;;;;;;5031274;28;20036;-67
2022/07/29 09:03:24;;;;;;;3.70;1.13;;;19.90;59.10;;;;;;5029076;28;20041;-67
2022/07/29 09:05:50;;;;;;;2.37;1.00;;;19.90;58.80;;;;;;5016444;28;20446;-67
2022/07/29 09:08:17;;;;;;;4.30;1.20;;;20.00;58.90;;;;;;5014422;28;20492;-67
2022/07/29 09:10:44;;;;;;;5.63;1.33;;;20.00;58.70;;;;;;5029302;28;20049;-67
2022/07/29 09:13:10;;;;;;;3.77;1.00;;;19.90;58.70;;;;;;5027154;28;20083;-67
2022/07/29 09:15:35;;;;;;;2.17;1.00;;;19.90;58.40;;;;;;5026969;28;20037;-67
2022/07/29 09:18:02;;;;;;;4.53;1.27;;;19.90;57.90;;;;;;5031870;28;20126;-67
2022/07/29 09:23:14;;;;;;;3.53;1.27;;;19.80;58.10;;;;;;5003862;28;20045;-67
2022/07/29 09:25:41;;;;;;;5.60;1.10;;;19.80;57.90;;;;;;5015142;28;20411;-67
2022/07/29 09:28:09;;;;;;;3.13;1.30;;;19.80;58.20;;;;;;5034296;28;20079;-67
2022/07/29 09:30:35;;;;;;;5.53;1.27;;;19.80;58.70;;;;;;5027166;28;20463;-67
2022/07/29 09:33:02;;;;;;;6.10;1.30;;;19.90;58.80;;;;;;5023100;28;20037;-67
2022/07/29 09:35:29;;;;;;;4.00;1.27;;;19.90;58.80;;;;;;5010743;28;20049;-67
2022/07/29 09:37:56;;;;;;;5.00;1.53;;;19.90;59.10;;;;;;5031584;28;20056;-67
2022/07/29 09:40:30;;;;;;;5.53;1.70;;;19.90;59.70;;;;;;5011197;28;20052;-67
2022/07/29 09:42:57;;;;;;;5.32;1.70;;;20.00;60.10;;;;;;5026005;28;20059;-68
2022/07/29 09:45:32;;;;;;;3.80;1.57;;;19.90;60.20;;;;;;5010842;28;20106;-67
2022/07/29 09:48:02;;;;;;;4.50;2.00;;;19.80;60.20;;;;;;5027575;28;20055;-67
2022/07/29 09:50:54;;;;;;;3.43;1.40;;;19.70;60.80;;;;;;5024949;28;20040;-68
2022/07/29 09:53:35;;;;;;;4.53;1.70;;;19.60;60.80;;;;;;5020849;28;20088;-68
2022/07/29 09:56:01;;;;;;;4.13;1.57;;;19.60;61.50;;;;;;5025648;28;20040;-67
2022/07/29 09:58:27;;;;;;;5.73;1.97;;;19.60;61.70;;;;;;5030817;28;20037;-67
2022/07/29 10:00:54;;;;;;;6.60;1.60;;;19.60;61.70;;;;;;5027837;28;20049;-67
2022/07/29 10:03:21;;;;;;;3.80;1.50;;;19.60;61.70;;;;;;5014527;28;20509;-67
2022/07/29 10:06:10;;;;;;;3.20;1.33;;;19.70;62.00;;;;;;5012969;28;20037;-68
2022/07/29 10:08:36;;;;;;;5.77;1.50;;;19.80;61.70;;;;;;5012224;28;20294;-67
2022/07/29 10:11:14;;;;;;;3.87;1.43;;;19.90;61.60;;;;;;5027314;28;20280;-67
2022/07/29 10:13:41;;;;;;;2.87;1.40;;;20.10;61.10;;;;;;5036332;28;20063;-67
2022/07/29 10:16:07;;;;;;;3.17;1.70;;;20.20;60.50;;;;;;4999106;28;20098;-67
2022/07/29 10:18:33;;;;;;;4.70;1.30;;;20.30;60.10;;;;;;5012040;28;20770;-67
2022/07/29 10:21:00;;;;;;;5.00;1.47;;;20.50;60.60;;;;;;5012593;28;20069;-68
2022/07/29 10:23:29;;;;;;;3.60;1.20;;;20.70;59.90;;;;;;5038258;28;20051;-68
2022/07/29 10:25:54;;;;;;;3.77;1.97;;;20.80;59.90;;;;;;5052483;28;20368;-68
2022/07/29 10:28:20;;;;;;;3.43;1.60;;;20.90;59.80;;;;;;5025973;28;20094;-67
2022/07/29 10:30:48;;;;;;;4.13;1.67;;;21.00;59.30;;;;;;5011644;28;20052;-67
2022/07/29 10:33:51;;;;;;;3.77;1.70;;;21.10;59.10;;;;;;5013113;28;20131;-67
2022/07/29 10:36:38;;;;;;;5.47;1.50;;;21.20;58.30;;;;;;5042585;28;20048;-68
2022/07/29 10:39:36;;;;;;;5.30;1.70;;;21.10;58.60;;;;;;5017959;28;21028;-67
2022/07/29 10:42:18;;;;;;;4.50;1.70;;;21.20;58.40;;;;;;5052778;28;20177;-67
2022/07/29 10:44:45;;;;;;;3.23;1.63;;;21.20;58.40;;;;;;5027425;28;20044;-67
2022/07/29 10:47:26;;;;;;;3.63;1.47;;;21.10;58.70;;;;;;5015535;28;20039;-67
2022/07/29 10:50:00;;;;;;;3.13;1.40;;;21.10;58.30;;;;;;5023398;28;20056;-67
2022/07/29 10:52:49;;;;;;;4.27;1.60;;;21.10;58.70;;;;;;5029347;28;20430;-68
2022/07/29 10:55:42;;;;;;;4.17;1.70;;;21.10;58.40;;;;;;5028644;28;20062;-67
2022/07/29 10:58:26;;;;;;;4.73;2.13;;;21.10;58.10;;;;;;5030416;28;20076;-67
2022/07/29 11:00:54;;;;;;;4.47;1.70;;;21.00;58.10;;;;;;5023769;28;20052;-67
2022/07/29 11:03:44;;;;;;;7.67;1.90;;;21.00;57.90;;;;;;5027831;28;20040;-67
2022/07/29 11:06:09;;;;;;;3.43;1.67;;;20.90;57.40;;;;;;5010574;28;20087;-67
2022/07/29 11:08:35;;;;;;;4.50;1.63;;;20.80;58.30;;;;;;5014019;28;20076;-67
2022/07/29 11:11:19;;;;;;;3.20;1.90;;;20.80;58.20;;;;;;5028082;28;20118;-67
2022/07/29 11:13:46;;;;;;;4.47;1.90;;;20.70;58.30;;;;;;5042474;28;20049;-67
2022/07/29 11:16:12;;;;;;;6.07;1.97;;;20.70;58.50;;;;;;5009761;28;20064;-67
2022/07/29 11:19:12;;;;;;;2.80;1.53;;;20.70;58.40;;;;;;5028398;28;20049;-67
2022/07/29 11:21:40;;;;;;;5.07;1.83;;;20.70;58.80;;;;;;5004973;28;20060;-67
2022/07/29 11:24:19;;;;;;;3.93;1.60;;;20.60;58.50;;;;;;5016777;28;20408;-67
2022/07/29 11:26:45;;;;;;;6.20;2.07;;;20.60;58.40;;;;;;5003791;28;20045;-67
2022/07/29 11:29:21;;;;;;;2.53;1.33;;;20.60;58.40;;;;;;5019576;28;20091;-67
2022/07/29 11:31:55;;;;;;;2.80;1.40;;;20.60;58.70;;;;;;5006609;28;20045;-67
2022/07/29 11:34:32;;;;;;;4.57;1.50;;;20.60;58.60;;;;;;5026094;28;20117;-67
2022/07/29 11:37:07;;;;;;;6.57;1.60;;;20.60;58.90;;;;;;5025466;28;20037;-67
2022/07/29 11:39:34;;;;;;;4.13;1.70;;;20.60;59.20;;;;;;5010541;28;20051;-67
2022/07/29 11:42:28;;;;;;;4.33;1.73;;;20.70;59.40;;;;;;5014081;28;20045;-67
2022/07/29 11:45:09;;;;;;;5.25;1.85;;;20.80;58.60;;;;;;5001441;28;20048;-67
2022/07/29 11:47:41;;;;;;;5.17;1.80;;;20.90;58.20;;;;;;5031482;28;20082;-67
2022/07/29 11:50:11;;;;;;;3.00;1.27;;;21.00;57.90;;;;;;5009287;28;21088;-67
2022/07/29 11:52:46;;;;;;;4.07;1.47;;;21.10;58.30;;;;;;5019817;28;20398;-67
2022/07/29 11:55:17;;;;;;;2.93;1.70;;;21.20;58.80;;;;;;5020567;28;20060;-68
2022/07/29 11:57:52;;;;;;;5.93;1.77;;;21.40;58.30;;;;;;5024532;28;20068;-67
2022/07/29 12:00:33;;;;;;;5.27;2.20;;;21.70;58.00;;;;;;5016980;28;20087;-67
2022/07/29 12:03:02;;;;;;;6.43;1.70;;;21.90;57.10;;;;;;5047873;28;20071;-67
2022/07/29 12:05:46;;;;;;;4.20;1.73;;;22.10;57.50;;;;;;5035982;28;20037;-67
2022/07/29 12:08:19;;;;;;;6.43;2.30;;;22.30;56.30;;;;;;5033379;28;20744;-67
2022/07/29 12:10:46;;;;;;;3.27;1.63;;;22.50;56.20;;;;;;5033187;28;20463;-68
2022/07/29 12:13:13;;;;;;;5.73;2.37;;;22.60;56.30;;;;;;5014582;28;20037;-68
2022/07/29 12:15:39;;;;;;;4.80;2.20;;;22.90;55.30;;;;;;5027928;28;20508;-68
2022/07/29 12:18:20;;;;;;;4.97;2.67;;;23.00;54.80;;;;;;5029474;28;20525;-67
2022/07/29 12:20:47;;;;;;;5.23;2.10;;;23.10;54.00;;;;;;5029482;28;20068;-68
2022/07/29 12:23:14;;;;;;;3.83;2.20;;;23.20;54.50;;;;;;5028200;28;20501;-67
2022/07/29 12:25:42;;;;;;;6.03;2.20;;;23.40;54.60;;;;;;5026052;28;20115;-68
2022/07/29 12:28:12;;;;;;;5.37;2.43;;;23.70;54.10;;;;;;5011467;28;20045;-68
2022/07/29 12:30:48;;;;;;;7.03;2.77;;;23.90;53.90;;;;;;5010988;28;20545;-67
2022/07/29 12:33:24;;;;;;;4.97;2.67;;;24.10;52.40;;;;;;5028955;28;20068;-68
2022/07/29 12:36:08;;;;;;;7.13;2.77;;;24.30;52.20;;;;;;5029989;28;20048;-68
2022/07/29 12:38:35;;;;;;;5.45;2.40;;;24.20;51.20;;;;;;5030348;28;20080;-68
2022/07/29 12:41:01;;;;;;;4.33;2.70;;;24.40;52.70;;;;;;5012872;28;20048;-68
2022/07/29 12:43:27;;;;;;;5.77;2.53;;;24.60;52.10;;;;;;5031895;28;20329;-68
2022/07/29 12:45:55;;;;;;;4.63;2.70;;;24.70;51.40;;;;;;5032133;28;20037;-68
2022/07/29 12:48:39;;;;;;;7.13;2.50;;;24.80;50.70;;;;;;5029791;28;20048;-68
2022/07/29 12:51:08;;;;;;;5.07;2.60;;;24.90;50.10;;;;;;5028078;28;20033;-68
2022/07/29 12:53:35;;;;;;;4.60;2.70;;;25.00;51.30;;;;;;5041052;28;20394;-68
2022/07/29 12:56:02;;;;;;;5.93;2.43;;;25.10;50.60;;;;;;5015907;28;20044;-68
2022/07/29 12:58:41;;;;;;;6.70;2.37;;;25.10;49.80;;;;;;5021767;28;20088;-68
2022/07/29 13:01:11;;;;;;;7.77;2.90;;;25.00;50.10;;;;;;5041008;28;20097;-68
2022/07/29 13:04:00;;;;;;;5.47;2.50;;;25.00;50.60;;;;;;5038490;28;20119;-68
2022/07/29 13:06:31;;;;;;;4.67;2.73;;;24.90;50.60;;;;;;5015778;28;20045;-68